createdAt,value
2023-04-12T00:02:02.323Z,7.30
2023-04-12T00:04:30.575Z,7.40
2023-04-12T00:07:01.142Z,7.50
2023-04-12T00:09:30.694Z,7.50
2023-04-12T00:11:59.092Z,7.50
2023-04-12T00:14:27.285Z,7.70
2023-04-12T00:16:55.454Z,7.60
2023-04-12T00:19:25.916Z,7.60
2023-04-12T00:21:53.977Z,7.70
2023-04-12T00:24:22.047Z,7.70
2023-04-12T00:26:50.172Z,7.70
2023-04-12T00:29:18.246Z,7.70
2023-04-12T00:31:46.376Z,7.80
2023-04-12T00:34:14.487Z,7.80
2023-04-12T00:36:43.863Z,7.80
2023-04-12T00:39:11.938Z,7.70
2023-04-12T00:41:40.078Z,7.80
2023-04-12T00:44:08.861Z,7.90
2023-04-12T00:46:38.163Z,7.90
2023-04-12T00:49:07.322Z,7.90
2023-04-12T00:51:35.591Z,7.90
2023-04-12T00:54:05.251Z,7.80
2023-04-12T00:56:34.645Z,8.10
2023-04-12T00:59:03.075Z,8.30
2023-04-12T01:01:32.060Z,8.10
2023-04-12T01:04:01.560Z,8.00
2023-04-12T01:06:54.852Z,8.00
2023-04-12T01:09:36.262Z,8.00
2023-04-12T01:12:17.705Z,8.00
2023-04-12T01:14:56.259Z,8.00
2023-04-12T01:17:29.896Z,8.00
2023-04-12T01:20:02.684Z,8.00
2023-04-12T01:23:00.721Z,8.00
2023-04-12T01:25:41.488Z,8.00
2023-04-12T01:28:15.920Z,8.00
2023-04-12T01:30:44.395Z,8.00
2023-04-12T01:33:14.346Z,8.00
2023-04-12T01:35:43.931Z,7.80
2023-04-12T01:38:12.177Z,7.90
2023-04-12T01:40:40.748Z,7.70
2023-04-12T01:43:11.692Z,8.00
2023-04-12T01:45:40.351Z,7.90
2023-04-12T01:48:11.658Z,8.00
2023-04-12T01:50:45.978Z,7.90
2023-04-12T01:53:19.481Z,7.90
2023-04-12T01:55:49.936Z,8.00
2023-04-12T01:58:25.731Z,8.00
2023-04-12T02:00:55.864Z,8.00
2023-04-12T02:03:25.251Z,8.00
2023-04-12T02:05:53.838Z,7.90
2023-04-12T02:08:22.217Z,8.00
2023-04-12T02:10:50.298Z,8.00
2023-04-12T02:13:19.780Z,8.00
2023-04-12T02:15:47.798Z,7.90
2023-04-12T02:18:17.557Z,8.00
2023-04-12T02:20:45.575Z,8.00
2023-04-12T02:23:13.894Z,8.00
2023-04-12T02:25:42.234Z,8.00
2023-04-12T02:28:10.388Z,8.00
2023-04-12T02:30:41.669Z,8.00
2023-04-12T02:33:10.040Z,8.00
2023-04-12T02:35:38.089Z,8.00
2023-04-12T02:38:08.734Z,8.00
2023-04-12T02:40:39.811Z,8.10
2023-04-12T02:43:08.183Z,8.10
2023-04-12T02:45:36.379Z,8.10
2023-04-12T02:48:06.538Z,8.20
2023-04-12T02:50:34.565Z,8.20
2023-04-12T02:53:02.668Z,8.20
2023-04-12T02:55:30.689Z,8.20
2023-04-12T02:57:59.092Z,8.20
2023-04-12T03:00:27.652Z,8.30
2023-04-12T03:02:55.799Z,8.30
2023-04-12T03:05:25.762Z,8.30
2023-04-12T03:07:53.805Z,8.30
2023-04-12T03:10:22.013Z,8.30
2023-04-12T03:12:50.052Z,8.30
2023-04-12T03:15:18.856Z,8.30
2023-04-12T03:17:46.945Z,8.30
2023-04-12T03:20:15.010Z,8.30
2023-04-12T03:22:44.429Z,8.30
2023-04-12T03:25:12.742Z,8.60
2023-04-12T03:27:40.798Z,8.30
2023-04-12T03:30:10.426Z,8.30
2023-04-12T03:32:38.535Z,8.30
2023-04-12T03:35:07.800Z,8.40
2023-04-12T03:37:36.152Z,8.40
2023-04-12T03:40:07.342Z,8.50
2023-04-12T03:42:35.442Z,8.50
2023-04-12T03:45:03.550Z,8.60
2023-04-12T03:47:34.691Z,8.50
2023-04-12T03:50:11.655Z,8.50
2023-04-12T03:52:40.618Z,8.50
2023-04-12T03:55:12.017Z,8.60
2023-04-12T03:57:40.381Z,8.60
2023-04-12T04:00:09.830Z,8.70
2023-04-12T04:02:38.576Z,8.70
2023-04-12T04:05:07.349Z,8.70
2023-04-12T04:07:36.525Z,8.70
2023-04-12T04:10:06.559Z,8.70
2023-04-12T04:12:35.892Z,8.70
2023-04-12T04:15:03.893Z,8.60
2023-04-12T04:17:31.930Z,8.60
2023-04-12T04:20:00.016Z,8.60
2023-04-12T04:22:29.534Z,8.60
2023-04-12T04:24:58.335Z,8.60
2023-04-12T04:27:26.325Z,8.60
2023-04-12T04:29:58.228Z,8.40
2023-04-12T04:32:26.466Z,8.50
2023-04-12T04:34:57.408Z,8.50
2023-04-12T04:37:25.657Z,8.40
2023-04-12T04:39:53.810Z,8.40
2023-04-12T04:42:22.171Z,8.40
2023-04-12T04:44:51.393Z,8.30
2023-04-12T04:47:22.315Z,8.30
2023-04-12T04:49:50.798Z,8.30
2023-04-12T04:52:19.607Z,8.20
2023-04-12T04:54:47.696Z,8.20
2023-04-12T04:57:15.797Z,8.30
2023-04-12T04:59:43.888Z,8.30
2023-04-12T05:02:12.085Z,8.20
2023-04-12T05:04:41.506Z,8.20
2023-04-12T05:07:10.898Z,8.20
2023-04-12T05:09:38.963Z,8.20
2023-04-12T05:12:07.187Z,8.20
2023-04-12T05:14:46.702Z,8.30
2023-04-12T05:17:17.745Z,8.30
2023-04-12T05:19:47.171Z,8.30
2023-04-12T05:22:15.272Z,8.40
2023-04-12T05:24:43.373Z,8.50
2023-04-12T05:27:11.642Z,8.50
2023-04-12T05:29:39.729Z,8.50
2023-04-12T05:32:07.807Z,8.60
2023-04-12T05:34:36.029Z,8.60
2023-04-12T05:37:05.490Z,8.60
2023-04-12T05:39:34.882Z,8.70
2023-04-12T05:42:02.955Z,8.70
2023-04-12T05:44:31.023Z,8.70
2023-04-12T05:46:59.014Z,8.70
2023-04-12T05:49:30.432Z,8.70
2023-04-12T05:51:58.457Z,8.70
2023-04-12T05:54:28.035Z,8.80
2023-04-12T05:56:57.218Z,8.80
2023-04-12T05:59:25.553Z,8.90
2023-04-12T06:01:53.675Z,8.80
2023-04-12T06:04:22.109Z,8.80
2023-04-12T06:06:50.357Z,8.90
2023-04-12T06:09:18.990Z,8.90
2023-04-12T06:11:48.399Z,9.00
2023-04-12T06:14:16.471Z,9.00
2023-04-12T06:16:44.479Z,9.00
2023-04-12T06:19:12.531Z,9.00
2023-04-12T06:21:41.120Z,9.10
2023-04-12T06:24:09.676Z,9.10
2023-04-12T06:26:40.130Z,9.10
2023-04-12T06:29:09.782Z,9.10
2023-04-12T06:31:37.927Z,9.00
2023-04-12T06:34:06.014Z,9.00
2023-04-12T06:36:34.060Z,9.00
2023-04-12T06:39:03.916Z,9.00
2023-04-12T06:41:32.033Z,8.90
2023-04-12T06:44:00.058Z,8.90
2023-04-12T06:46:30.165Z,9.00
2023-04-12T06:48:58.573Z,9.00
2023-04-12T06:51:28.099Z,9.00
2023-04-12T06:53:57.747Z,8.90
2023-04-12T06:56:25.860Z,9.10
2023-04-12T06:58:54.139Z,8.80
2023-04-12T07:01:22.403Z,8.80
2023-04-12T07:03:52.111Z,8.70
2023-04-12T07:06:25.470Z,8.60
2023-04-12T07:08:54.578Z,8.50
2023-04-12T07:11:23.902Z,8.30
2023-04-12T07:13:52.520Z,8.10
2023-04-12T07:16:20.785Z,8.10
2023-04-12T07:18:49.639Z,8.10
2023-04-12T07:21:19.147Z,8.10
2023-04-12T07:23:51.211Z,8.10
2023-04-12T07:26:19.888Z,8.10
2023-04-12T07:28:49.916Z,8.20
2023-04-12T07:31:18.158Z,8.00
2023-04-12T07:33:46.432Z,8.00
2023-04-12T07:36:16.576Z,7.90
2023-04-12T07:38:46.185Z,7.90
2023-04-12T07:41:14.260Z,7.70
2023-04-12T07:43:42.473Z,7.80
2023-04-12T07:46:10.579Z,7.80
2023-04-12T07:48:38.756Z,7.80
2023-04-12T07:51:07.325Z,7.80
2023-04-12T07:53:35.383Z,7.80
2023-04-12T07:56:06.900Z,7.80
2023-04-12T07:58:35.549Z,7.90
2023-04-12T08:01:03.766Z,7.90
2023-04-12T08:03:32.385Z,7.80
2023-04-12T08:06:00.798Z,7.90
2023-04-12T08:08:28.968Z,7.90
2023-04-12T08:10:57.052Z,8.00
2023-04-12T08:13:26.526Z,8.00
2023-04-12T08:15:54.674Z,8.00
2023-04-12T08:18:22.833Z,8.10
2023-04-12T08:20:50.969Z,8.20
2023-04-12T08:23:19.307Z,8.20
2023-04-12T08:25:47.416Z,8.30
2023-04-12T08:28:15.633Z,8.40
2023-04-12T08:30:45.802Z,8.40
2023-04-12T08:33:13.800Z,8.50
2023-04-12T08:35:41.884Z,8.60
2023-04-12T08:38:10.071Z,8.60
2023-04-12T08:40:38.566Z,8.70
2023-04-12T08:43:10.023Z,8.90
2023-04-12T08:45:39.200Z,9.00
2023-04-12T08:48:08.784Z,9.10
2023-04-12T08:50:37.018Z,9.10
2023-04-12T08:53:05.191Z,9.10
2023-04-12T08:55:33.479Z,9.20
2023-04-12T08:58:04.003Z,9.10
2023-04-12T09:00:32.263Z,9.20
2023-04-12T09:03:00.920Z,9.30
2023-04-12T09:05:31.803Z,9.40
2023-04-12T09:08:00.168Z,9.40
2023-04-12T09:10:33.639Z,9.40
2023-04-12T09:13:01.853Z,9.40
2023-04-12T09:15:30.344Z,9.40
2023-04-12T09:18:07.383Z,9.50
2023-04-12T09:20:37.361Z,9.60
2023-04-12T09:23:19.352Z,9.60
2023-04-12T09:25:48.524Z,9.60
2023-04-12T09:28:21.508Z,9.60
2023-04-12T09:30:52.698Z,9.60
2023-04-12T09:33:22.373Z,9.70
2023-04-12T09:35:51.981Z,10.00
2023-04-12T09:38:20.057Z,10.10
2023-04-12T09:40:48.738Z,10.10
2023-04-12T09:43:16.803Z,10.40
2023-04-12T09:45:44.972Z,10.40
2023-04-12T09:48:21.007Z,10.50
2023-04-12T09:50:49.506Z,10.80
2023-04-12T09:53:19.451Z,11.00
2023-04-12T09:55:49.706Z,10.90
2023-04-12T09:58:21.295Z,11.00
2023-04-12T10:00:50.238Z,11.10
2023-04-12T10:03:20.028Z,11.20
2023-04-12T10:05:49.003Z,11.70
2023-04-12T10:08:18.948Z,12.10
2023-04-12T10:10:47.208Z,12.30
2023-04-12T10:13:16.015Z,12.50
2023-04-12T10:15:46.573Z,12.60
2023-04-12T10:18:17.242Z,12.50
2023-04-12T10:20:47.246Z,12.40
2023-04-12T10:23:15.664Z,12.20
2023-04-12T10:25:47.875Z,12.00
2023-04-12T10:28:17.499Z,11.80
2023-04-12T10:30:48.092Z,11.40
2023-04-12T10:33:17.944Z,11.30
2023-04-12T10:35:57.687Z,11.20
2023-04-12T10:38:27.349Z,11.10
2023-04-12T10:41:16.505Z,11.20
2023-04-12T10:43:45.868Z,11.50
2023-04-12T10:46:49.074Z,11.70
2023-04-12T10:49:18.093Z,11.70
2023-04-12T10:52:14.776Z,11.80
2023-04-12T10:54:43.074Z,12.20
2023-04-12T10:57:45.461Z,12.40
2023-04-12T11:00:14.742Z,12.80
2023-04-12T11:03:06.107Z,13.00
2023-04-12T11:06:09.633Z,12.70
2023-04-12T11:08:41.551Z,12.40
2023-04-12T11:11:20.805Z,12.10
2023-04-12T11:13:55.400Z,11.80
2023-04-12T11:16:23.762Z,11.60
2023-04-12T11:18:52.116Z,11.60
2023-04-12T11:21:20.539Z,11.50
2023-04-12T11:23:49.946Z,11.70
2023-04-12T11:26:22.115Z,11.80
2023-04-12T11:28:53.361Z,11.80
2023-04-12T11:31:23.111Z,11.80
2023-04-12T11:33:51.293Z,11.80
2023-04-12T11:36:19.512Z,11.70
2023-04-12T11:38:50.279Z,11.90
2023-04-12T11:41:18.742Z,12.40
2023-04-12T11:43:47.315Z,12.70
2023-04-12T11:46:18.445Z,13.00
2023-04-12T11:48:47.006Z,13.20
2023-04-12T11:51:24.662Z,12.90
2023-04-12T11:53:54.668Z,13.30
2023-04-12T11:56:23.805Z,13.90
2023-04-12T11:58:52.070Z,14.60
2023-04-12T12:01:23.732Z,14.70
2023-04-12T12:03:52.317Z,14.60
2023-04-12T12:06:21.805Z,13.80
2023-04-12T12:08:51.352Z,13.30
2023-04-12T12:11:21.525Z,12.90
2023-04-12T12:13:51.769Z,12.60
2023-04-12T12:16:25.461Z,12.70
2023-04-12T12:18:53.894Z,12.60
2023-04-12T12:21:22.599Z,12.60
2023-04-12T12:23:51.116Z,12.60
2023-04-12T12:26:23.042Z,12.50
2023-04-12T12:28:52.859Z,12.50
2023-04-12T12:31:24.083Z,12.50
2023-04-12T12:33:56.899Z,12.70
2023-04-12T12:36:32.858Z,12.80
2023-04-12T12:39:07.382Z,12.90
2023-04-12T12:41:37.120Z,13.00
2023-04-12T12:44:05.717Z,12.90
2023-04-12T12:49:06.446Z,12.60
2023-04-12T12:51:34.547Z,12.50
2023-04-12T12:54:02.742Z,12.30
2023-04-12T12:56:30.902Z,12.30
2023-04-12T12:58:59.264Z,12.30
2023-04-12T13:01:27.696Z,12.30
2023-04-12T13:03:58.882Z,12.40
2023-04-12T13:06:28.356Z,12.30
2023-04-12T13:08:56.810Z,12.30
2023-04-12T13:11:25.096Z,12.30
2023-04-12T13:13:53.170Z,12.30
2023-04-12T13:16:22.895Z,12.30
2023-04-12T13:18:52.093Z,12.30
2023-04-12T13:21:21.624Z,12.30
2023-04-12T13:23:49.819Z,12.40
2023-04-12T13:26:17.942Z,12.60
2023-04-12T13:28:46.039Z,12.90
2023-04-12T13:31:14.173Z,13.00
2023-04-12T13:33:42.308Z,13.20
2023-04-12T13:36:10.955Z,13.30
2023-04-12T13:38:41.140Z,13.20
2023-04-12T13:41:09.280Z,13.00
2023-04-12T13:43:37.457Z,12.80
2023-04-12T13:46:07.307Z,12.60
2023-04-12T13:48:35.508Z,12.60
2023-04-12T13:51:04.224Z,12.50
2023-04-12T13:53:32.873Z,12.50
2023-04-12T13:56:02.325Z,12.40
2023-04-12T13:58:30.701Z,12.40
2023-04-12T14:01:00.599Z,12.40
2023-04-12T14:03:29.274Z,12.30
2023-04-12T14:05:57.601Z,12.50
2023-04-12T14:08:26.010Z,12.60
2023-04-12T14:10:54.521Z,12.70
2023-04-12T14:13:25.235Z,12.70
2023-04-12T14:15:54.033Z,12.80
2023-04-12T14:18:22.914Z,12.70
2023-04-12T14:20:54.694Z,12.50
2023-04-12T14:23:25.276Z,12.30
2023-04-12T14:25:53.828Z,12.00
2023-04-12T14:28:24.261Z,11.80
2023-04-12T14:30:54.355Z,11.70
2023-04-12T14:33:22.530Z,11.60
2023-04-12T14:35:50.885Z,11.80
2023-04-12T14:38:19.071Z,12.10
2023-04-12T14:40:47.313Z,12.50
2023-04-12T14:43:15.516Z,12.90
2023-04-12T14:45:43.830Z,13.10
2023-04-12T14:48:13.471Z,13.00
2023-04-12T14:50:41.756Z,12.90
2023-04-12T14:53:10.534Z,12.90
2023-04-12T14:55:38.735Z,12.80
2023-04-12T14:58:07.621Z,12.90
2023-04-12T15:00:35.826Z,13.10
2023-04-12T15:03:05.584Z,13.60
2023-04-12T15:05:35.629Z,14.00
2023-04-12T15:08:04.328Z,14.20
2023-04-12T15:10:32.640Z,14.50
2023-04-12T15:13:00.868Z,14.60
2023-04-12T15:15:29.488Z,14.60
2023-04-12T15:17:57.845Z,14.60
2023-04-12T15:20:26.097Z,14.30
2023-04-12T15:22:55.750Z,14.00
2023-04-12T15:25:24.282Z,13.70
2023-04-12T15:27:52.457Z,13.70
2023-04-12T15:30:20.744Z,13.40
2023-04-12T15:32:48.910Z,13.20
2023-04-12T15:35:26.133Z,13.10
2023-04-12T15:37:56.363Z,13.10
2023-04-12T15:40:24.592Z,13.10
2023-04-12T15:42:52.915Z,13.00
2023-04-12T15:45:21.243Z,12.80
2023-04-12T15:47:49.451Z,12.60
2023-04-12T15:50:17.783Z,12.30
2023-04-12T15:52:46.350Z,12.10
2023-04-12T15:55:18.862Z,11.90
2023-04-12T15:57:48.651Z,11.70
2023-04-12T16:00:24.742Z,11.70
2023-04-12T16:02:55.122Z,11.60
2023-04-12T16:05:24.934Z,11.50
2023-04-12T16:07:54.539Z,11.40
2023-04-12T16:10:24.930Z,11.40
2023-04-12T16:12:54.793Z,11.30
2023-04-12T16:15:23.026Z,11.30
2023-04-12T16:17:54.352Z,11.30
2023-04-12T16:20:23.379Z,11.20
2023-04-12T16:22:54.647Z,11.20
2023-04-12T16:25:25.507Z,11.20
2023-04-12T16:27:54.142Z,11.20
2023-04-12T16:30:23.028Z,11.30
2023-04-12T16:32:52.311Z,11.50
2023-04-12T16:35:20.500Z,11.70
2023-04-12T16:37:48.887Z,11.80
2023-04-12T16:40:17.396Z,11.80
2023-04-12T16:42:47.240Z,11.70
2023-04-12T16:45:15.880Z,11.60
2023-04-12T16:47:47.022Z,11.50
2023-04-12T16:50:15.626Z,11.40
2023-04-12T16:52:44.024Z,11.30
2023-04-12T16:55:12.674Z,10.90
2023-04-12T16:57:41.676Z,10.50
2023-04-12T17:00:20.622Z,9.90
2023-04-12T17:02:51.231Z,9.60
2023-04-12T17:05:20.312Z,9.20
2023-04-12T17:07:49.699Z,9.00
2023-04-12T17:10:18.841Z,8.80
2023-04-12T17:12:47.609Z,8.80
2023-04-12T17:15:19.170Z,8.70
2023-04-12T17:17:49.875Z,8.60
2023-04-12T17:20:19.419Z,8.60
2023-04-12T17:22:48.064Z,8.60
2023-04-12T17:25:20.685Z,8.50
2023-04-12T17:27:49.782Z,8.50
2023-04-12T17:30:19.424Z,8.50
2023-04-12T17:32:48.674Z,8.40
2023-04-12T17:35:17.936Z,8.40
2023-04-12T17:37:46.991Z,8.30
2023-04-12T17:40:15.620Z,8.30
2023-04-12T17:42:44.851Z,8.20
2023-04-12T17:45:14.707Z,8.10
2023-04-12T17:47:45.039Z,8.10
2023-04-12T17:50:13.449Z,8.10
2023-04-12T17:52:42.462Z,8.00
2023-04-12T17:55:12.478Z,8.00
2023-04-12T17:57:40.837Z,8.00
2023-04-12T18:00:11.958Z,7.90
2023-04-12T18:02:40.916Z,7.80
2023-04-12T18:05:11.502Z,7.80
2023-04-12T18:07:40.259Z,7.90
2023-04-12T18:10:09.998Z,7.90
2023-04-12T18:12:38.836Z,7.90
2023-04-12T18:15:08.531Z,7.90
2023-04-12T18:17:36.911Z,7.90
2023-04-12T18:20:09.636Z,7.80
2023-04-12T18:22:39.255Z,7.70
2023-04-12T18:25:08.278Z,7.60
2023-04-12T18:27:36.510Z,7.50
2023-04-12T18:30:05.378Z,7.40
2023-04-12T18:32:33.608Z,7.20
2023-04-12T18:35:02.551Z,7.10
2023-04-12T18:37:30.777Z,7.00
2023-04-12T18:40:00.624Z,6.90
2023-04-12T18:42:28.821Z,6.80
2023-04-12T18:44:58.270Z,6.70
2023-04-12T18:47:27.552Z,6.70
2023-04-12T18:49:56.547Z,6.60
2023-04-12T18:52:24.721Z,6.60
2023-04-12T18:54:52.910Z,6.50
2023-04-12T18:57:23.128Z,6.50
2023-04-12T18:59:51.665Z,6.40
2023-04-12T19:02:20.012Z,6.30
2023-04-12T19:04:48.317Z,6.30
2023-04-12T19:07:16.665Z,6.20
2023-04-12T19:09:45.282Z,6.20
2023-04-12T19:12:13.568Z,6.20
2023-04-12T19:14:43.087Z,6.10
2023-04-12T19:17:11.365Z,6.10
2023-04-12T19:19:39.611Z,6.10
2023-04-12T19:22:07.870Z,6.10
2023-04-12T19:24:36.180Z,6.20
2023-04-12T19:27:04.635Z,6.10
2023-04-12T19:29:32.867Z,6.20
2023-04-12T19:32:05.376Z,6.10
2023-04-12T19:34:34.181Z,6.10
2023-04-12T19:37:02.385Z,6.20
2023-04-12T19:39:30.677Z,6.30
2023-04-12T19:41:58.899Z,6.30
2023-04-12T19:44:27.453Z,6.40
2023-04-12T19:46:55.715Z,6.40
2023-04-12T19:49:26.039Z,6.40
2023-04-12T19:51:54.379Z,6.50
2023-04-12T19:54:23.910Z,6.50
2023-04-12T19:56:53.305Z,6.60
2023-04-12T19:59:21.834Z,6.60
2023-04-12T20:01:50.514Z,6.60
2023-04-12T20:04:20.821Z,6.40
2023-04-12T20:06:51.955Z,6.60
2023-04-12T20:09:22.304Z,6.60
2023-04-12T20:11:50.657Z,6.60
2023-04-12T20:14:18.788Z,6.70
2023-04-12T20:16:47.390Z,6.70
2023-04-12T20:19:16.454Z,6.70
2023-04-12T20:21:45.406Z,6.70
2023-04-12T20:24:14.913Z,6.80
2023-04-12T20:26:46.414Z,6.70
2023-04-12T20:29:15.011Z,6.70
2023-04-12T20:31:43.374Z,6.70
2023-04-12T20:34:11.455Z,6.70
2023-04-12T20:36:39.818Z,6.70
2023-04-12T20:39:08.026Z,7.00
2023-04-12T20:41:38.573Z,6.70
2023-04-12T20:44:06.637Z,6.70
2023-04-12T20:46:36.933Z,6.70
2023-04-12T20:49:06.767Z,6.70
2023-04-12T20:51:34.873Z,6.70
2023-04-12T20:54:03.324Z,6.60
2023-04-12T20:56:31.420Z,6.60
2023-04-12T20:59:02.524Z,6.70
2023-04-12T21:01:30.729Z,6.60
2023-04-12T21:04:05.904Z,6.60
2023-04-12T21:06:34.532Z,6.60
2023-04-12T21:09:05.890Z,6.60
2023-04-12T21:11:34.175Z,6.50
2023-04-12T21:14:03.557Z,6.50
2023-04-12T21:16:31.720Z,6.50
2023-04-12T21:19:00.545Z,6.50
2023-04-12T21:21:28.653Z,6.40
2023-04-12T21:23:56.923Z,6.40
2023-04-12T21:26:25.685Z,6.30
2023-04-12T21:28:53.984Z,6.30
2023-04-12T21:31:23.809Z,6.20
2023-04-12T21:33:53.206Z,6.10
2023-04-12T21:36:21.325Z,6.00
2023-04-12T21:38:49.461Z,5.90
2023-04-12T21:41:17.659Z,5.70
2023-04-12T21:43:47.798Z,5.60
2023-04-12T21:46:15.986Z,5.60
2023-04-12T21:48:45.966Z,5.50
2023-04-12T21:51:14.094Z,5.50
2023-04-12T21:53:42.185Z,5.40
2023-04-12T21:56:10.863Z,5.50
2023-04-12T21:58:38.880Z,5.50
2023-04-12T22:01:07.833Z,5.50
2023-04-12T22:03:36.528Z,5.50
2023-04-12T22:06:07.146Z,5.50
2023-04-12T22:08:35.193Z,5.40
2023-04-12T22:11:03.233Z,5.40
2023-04-12T22:13:31.743Z,5.60
2023-04-12T22:16:00.768Z,5.50
2023-04-12T22:18:29.637Z,5.60
2023-04-12T22:20:57.895Z,5.60
2023-04-12T22:23:27.345Z,5.80
2023-04-12T22:25:58.630Z,5.90
2023-04-12T22:28:26.687Z,6.10
2023-04-12T22:30:57.108Z,6.10
2023-04-12T22:33:25.381Z,6.10
2023-04-12T22:35:53.804Z,6.00
2023-04-12T22:38:21.822Z,6.10
2023-04-12T22:40:51.489Z,6.00
2023-04-12T22:43:21.000Z,6.00
2023-04-12T22:45:53.910Z,6.00
2023-04-12T22:48:25.009Z,6.00
2023-04-12T22:50:54.574Z,6.10
2023-04-12T22:53:22.706Z,6.30
2023-04-12T22:55:54.509Z,6.20
2023-04-12T22:58:22.560Z,6.10
2023-04-12T23:00:50.840Z,6.10
2023-04-12T23:03:19.506Z,6.10
2023-04-12T23:05:48.201Z,6.10
2023-04-12T23:08:16.456Z,6.10
2023-04-12T23:10:45.386Z,6.10
2023-04-12T23:13:14.818Z,6.10
2023-04-12T23:15:43.963Z,6.00
2023-04-12T23:18:12.056Z,6.10
2023-04-12T23:20:40.393Z,6.20
2023-04-12T23:23:08.461Z,6.00
2023-04-12T23:25:39.905Z,6.00
2023-04-12T23:28:12.513Z,6.00
2023-04-12T23:30:43.621Z,6.00
2023-04-12T23:33:12.033Z,6.10
2023-04-12T23:35:41.557Z,6.10
2023-04-12T23:38:15.755Z,6.00
2023-04-12T23:40:44.397Z,6.10
2023-04-12T23:43:12.508Z,5.90
2023-04-12T23:45:42.196Z,6.00
2023-04-12T23:48:10.263Z,6.10
2023-04-12T23:50:39.063Z,6.10
2023-04-12T23:53:07.456Z,6.30
2023-04-12T23:55:35.477Z,6.40
2023-04-12T23:58:03.490Z,6.50
